Time;durP1;ratioP1;P1;durP2;ratioP2;P2;SDS_P1;SDS_P2;PMS_P1;PMS_P2;Temp;Humidity;BMP_temperature;BMP_pressure;BME280_temperature;BME280_humidity;BME280_pressure;Samples;Min_cycle;Max_cycle;Signal;HPM_P1;HPM_P2
2022/06/05 00:01:35;;;;;;;8.70;7.20;;;;;;;14.66;66.68;100578.27;130228;1270;108685;-76
2022/06/05 00:04:51;;;;;;;7.70;7.00;;;;;;;14.65;66.48;100577.63;130096;1270;108589;-76
2022/06/05 00:08:07;;;;;;;7.70;7.00;;;;;;;14.63;66.59;100578.27;130041;1271;108667;-76
2022/06/05 00:11:14;;;;;;;8.20;7.20;;;;;;;14.63;66.66;100579.52;130078;1270;108746;-76
2022/06/05 00:14:19;;;;;;;8.40;7.60;;;;;;;14.62;66.81;100586.23;130039;1270;108652;-76
2022/06/05 00:17:24;;;;;;;8.80;7.80;;;;;;;14.60;67.06;100586.50;130118;1270;108805;-77
2022/06/05 00:20:31;;;;;;;10.10;8.40;;;;;;;14.55;67.36;100591.25;130137;1270;108565;-76
2022/06/05 00:23:37;;;;;;;9.30;8.40;;;;;;;14.52;68.03;100585.48;130178;1270;108641;-77
2022/06/05 00:26:52;;;;;;;11.60;9.10;;;;;;;14.53;68.04;100584.30;130071;1271;108653;-76
2022/06/05 00:30:07;;;;;;;10.10;9.10;;;;;;;14.58;68.32;100586.64;130163;1270;108704;-76
2022/06/05 00:33:18;;;;;;;11.20;8.10;;;;;;;14.61;68.10;100586.00;130091;1271;109205;-76
2022/06/05 00:36:36;;;;;;;9.90;8.90;;;;;;;14.62;68.07;100590.88;130040;1271;108932;-75
2022/06/05 00:39:47;;;;;;;9.20;8.20;;;;;;;14.60;68.12;100589.45;130029;1271;108907;-75
2022/06/05 00:42:53;;;;;;;8.10;7.30;;;;;;;14.56;67.93;100589.55;130070;1270;108736;-75
2022/06/05 00:45:59;;;;;;;9.40;7.30;;;;;;;14.50;68.06;100586.74;130019;1270;107697;-76
2022/06/05 00:49:05;;;;;;;8.40;6.80;;;;;;;14.48;68.15;100582.70;130110;1270;108725;-76
2022/06/05 00:52:13;;;;;;;8.00;7.20;;;;;;;14.48;68.15;100583.27;130046;1270;108780;-75
2022/06/05 00:55:18;;;;;;;9.20;8.30;;;;;;;14.48;68.36;100582.66;130058;1270;108825;-75
2022/06/05 00:58:24;;;;;;;8.70;7.80;;;;;;;14.49;68.44;100579.64;130068;1270;109792;-74
2022/06/05 01:01:30;;;;;;;9.80;8.60;;;;;;;14.49;68.33;100576.63;129867;1270;285086;-74
2022/06/05 01:04:38;;;;;;;8.90;8.00;;;;;;;14.48;68.73;100578.98;130084;1270;108982;-74
2022/06/05 01:07:44;;;;;;;9.30;7.70;;;;;;;14.47;68.48;100585.51;130120;1270;108919;-76
2022/06/05 01:10:59;;;;;;;8.30;7.50;;;;;;;14.46;68.73;100588.67;130087;1270;109180;-75
2022/06/05 01:14:14;;;;;;;7.90;7.10;;;;;;;14.44;68.68;100590.26;130052;1270;107656;-75
2022/06/05 01:17:34;;;;;;;7.90;6.70;;;;;;;14.41;68.74;100589.59;130029;1271;105922;-76
2022/06/05 01:20:56;;;;;;;7.50;6.80;;;;;;;14.40;68.69;100588.21;130170;1270;108684;-78
2022/06/05 01:24:17;;;;;;;7.60;6.70;;;;;;;14.43;68.90;100588.85;130094;1270;108861;-76
2022/06/05 01:27:27;;;;;;;7.40;6.70;;;;;;;14.46;68.60;100589.86;130191;1270;108758;-79
2022/06/05 01:30:37;;;;;;;8.00;7.10;;;;;;;14.47;68.78;100586.86;130258;1270;108617;-78
2022/06/05 01:33:50;;;;;;;9.40;7.60;;;;;;;14.47;68.82;100584.05;130072;1270;108783;-77
2022/06/05 01:37:01;;;;;;;9.30;8.40;;;;;;;14.45;69.06;100591.77;130081;1271;109114;-75
2022/06/05 01:40:10;;;;;;;9.00;7.70;;;;;;;14.44;69.03;100590.48;130034;1270;109434;-75
2022/06/05 01:43:20;;;;;;;8.40;7.40;;;;;;;14.43;69.34;100591.70;130086;1270;108706;-77
2022/06/05 01:46:33;;;;;;;8.70;7.30;;;;;;;14.42;69.64;100591.73;130039;1270;107644;-76
2022/06/05 01:49:45;;;;;;;8.40;7.60;;;;;;;14.46;69.62;100591.39;130066;1270;108695;-77
2022/06/05 01:52:55;;;;;;;9.10;7.50;;;;;;;14.48;69.80;100583.48;130082;1271;108844;-76
2022/06/05 01:56:06;;;;;;;9.80;8.30;;;;;;;14.48;69.66;100593.61;130012;1270;108862;-78
2022/06/05 01:59:14;;;;;;;9.10;8.20;;;;;;;14.48;69.85;100593.60;130076;1270;108963;-77
2022/06/05 02:02:30;;;;;;;9.40;8.40;;;;;;;14.48;70.09;100604.27;130037;1270;108856;-77
2022/06/05 02:05:42;;;;;;;9.40;8.40;;;;;;;14.47;70.65;100605.02;130016;1271;108707;-76
2022/06/05 02:08:48;;;;;;;;;;;;;;;14.42;70.68;100607.33;130105;1270;108766;-77
2022/06/05 02:11:53;;;;;;;9.80;8.80;;;;;;;14.44;71.16;100610.36;130022;1271;108794;-77
2022/06/05 02:14:59;;;;;;;9.90;8.90;;;;;;;14.44;71.57;100613.88;130056;1271;109092;-77
2022/06/05 02:18:05;;;;;;;9.80;8.80;;;;;;;14.44;71.42;100613.73;130001;1271;108821;-78
2022/06/05 02:21:10;;;;;;;10.10;9.10;;;;;;;14.46;71.45;100613.65;130122;1271;109839;-77
2022/06/05 02:24:16;;;;;;;11.20;9.60;;;;;;;14.47;71.69;100619.14;130121;1271;108685;-78
2022/06/05 02:27:25;;;;;;;11.00;9.30;;;;;;;14.46;71.91;100622.78;130169;1271;108824;-77
2022/06/05 02:30:38;;;;;;;10.50;9.00;;;;;;;14.41;72.84;100640.39;130188;1270;108801;-77
2022/06/05 02:33:53;;;;;;;11.00;8.90;;;;;;;14.33;72.73;100645.36;130171;1271;107763;-77
2022/06/05 02:37:07;;;;;;;11.20;9.50;;;;;;;14.32;73.09;100650.00;130143;1270;108948;-78
2022/06/05 02:40:22;;;;;;;10.40;9.30;;;;;;;14.33;73.38;100647.11;130214;1271;108755;-78
2022/06/05 02:43:36;;;;;;;10.60;9.60;;;;;;;14.37;73.13;100647.48;130294;1271;108862;-78
2022/06/05 02:46:50;;;;;;;10.90;9.60;;;;;;;14.37;73.28;100650.52;130051;1270;108790;-77
2022/06/05 02:50:02;;;;;;;10.30;9.20;;;;;;;14.35;72.95;100644.95;130039;1271;108747;-77
2022/06/05 02:53:10;;;;;;;10.60;8.80;;;;;;;14.33;73.70;100649.63;130051;1271;108822;-77
2022/06/05 02:56:15;;;;;;;12.50;9.10;;;;;;;14.32;73.99;100650.67;130069;1271;107657;-76
2022/06/05 02:59:21;;;;;;;10.70;9.00;;;;;;;14.31;73.81;100652.72;130023;1270;108810;-76
2022/06/05 03:05:49;;;;;;;10.60;8.90;;;;;;;14.34;73.64;100660.30;130211;1270;108798;-78
2022/06/05 03:08:54;;;;;;;12.20;9.40;;;;;;;14.32;74.30;100666.94;130188;1271;108764;-76
2022/06/05 03:11:59;;;;;;;11.20;8.80;;;;;;;14.26;74.62;100668.89;130146;1271;108703;-79
2022/06/05 03:15:06;;;;;;;10.60;8.40;;;;;;;14.26;74.86;100675.19;130334;1271;108754;-82
2022/06/05 03:18:14;;;;;;;10.80;9.40;;;;;;;14.31;73.97;100680.97;130132;1271;107620;-82
2022/06/05 03:21:19;;;;;;;10.50;9.30;;;;;;;14.36;74.05;100679.25;130190;1271;108774;-81
2022/06/05 03:24:24;;;;;;;10.10;9.00;;;;;;;14.37;74.04;100681.06;130138;1271;108733;-81
2022/06/05 03:27:30;;;;;;;10.60;8.40;;;;;;;14.35;74.25;100682.95;130383;1271;109614;-77
2022/06/05 03:30:39;;;;;;;11.00;7.60;;;;;;;14.36;73.89;100682.48;130303;1271;108792;-77
2022/06/05 03:33:44;;;;;;;11.80;8.80;;;;;;;14.41;73.89;100679.72;130171;1271;108707;-80
2022/06/05 03:36:49;;;;;;;9.70;8.30;;;;;;;14.46;74.02;100677.45;130190;1271;108667;-81
2022/06/05 03:39:54;;;;;;;11.60;9.30;;;;;;;14.53;73.85;100675.06;130478;1271;108925;-82
2022/06/05 03:42:59;;;;;;;10.70;8.60;;;;;;;14.60;73.75;100673.30;130456;1271;108720;-82
2022/06/05 03:46:06;;;;;;;9.20;8.20;;;;;;;14.72;73.53;100672.95;130373;1271;107677;-83
2022/06/05 03:49:12;;;;;;;9.00;7.00;;;;;;;14.84;73.55;100673.29;130350;1271;108728;-81
2022/06/05 03:52:17;;;;;;;8.80;7.90;;;;;;;14.99;73.47;100670.15;130229;1270;109545;-78
2022/06/05 03:55:25;;;;;;;9.20;7.90;;;;;;;15.14;73.22;100665.41;130360;1271;109942;-79
2022/06/05 03:58:30;;;;;;;9.70;8.50;;;;;;;15.33;73.00;100662.45;130099;1271;108711;-78
2022/06/05 04:01:35;;;;;;;9.30;8.40;;;;;;;15.55;72.98;100664.20;130174;1271;108977;-78
2022/06/05 04:04:40;;;;;;;9.10;8.10;;;;;;;15.73;72.64;100663.46;130039;1271;108720;-74
2022/06/05 04:07:46;;;;;;;10.00;7.90;;;;;;;15.95;72.45;100670.53;130021;1271;107769;-74
2022/06/05 04:10:51;;;;;;;10.50;7.30;;;;;;;16.20;72.03;100671.43;130025;1271;108904;-76
2022/06/05 04:13:56;;;;;;;8.90;7.70;;;;;;;16.41;71.72;100675.69;130059;1271;108891;-77
2022/06/05 04:17:02;;;;;;;8.70;7.80;;;;;;;16.65;71.62;100676.27;130041;1270;109194;-76
2022/06/05 04:20:10;;;;;;;8.40;7.50;;;;;;;16.84;70.70;100676.14;130013;1270;108798;-76
2022/06/05 04:23:15;;;;;;;10.70;9.30;;;;;;;16.92;70.27;100672.70;130082;1271;108839;-77
2022/06/05 04:26:22;;;;;;;11.10;8.70;;;;;;;16.90;70.29;100675.80;130023;1271;108872;-78
2022/06/05 04:29:27;;;;;;;9.70;8.30;;;;;;;16.94;70.30;100680.22;130059;1270;108776;-76
2022/06/05 04:32:32;;;;;;;9.40;7.90;;;;;;;17.02;70.15;100679.33;130147;1271;107664;-76
2022/06/05 04:35:37;;;;;;;8.40;7.60;;;;;;;17.07;69.67;100680.71;130183;1271;108788;-77
2022/06/05 04:38:43;;;;;;;9.30;7.80;;;;;;;17.09;69.61;100682.18;130040;1271;108780;-77
2022/06/05 04:41:49;;;;;;;9.10;7.80;;;;;;;17.16;69.45;100687.83;130090;1271;108857;-75
2022/06/05 04:44:54;;;;;;;9.30;8.10;;;;;;;17.17;68.81;100688.33;130053;1271;108921;-75
2022/06/05 04:48:00;;;;;;;8.50;7.60;;;;;;;17.24;68.52;100685.13;130191;1271;108789;-74
2022/06/05 04:51:07;;;;;;;9.00;7.40;;;;;;;17.29;68.67;100678.06;130202;1271;108865;-76
2022/06/05 04:54:16;;;;;;;7.80;6.70;;;;;;;17.41;68.73;100675.73;130029;1271;108515;-74
2022/06/05 04:57:21;;;;;;;7.10;6.30;;;;;;;17.63;68.40;100676.48;130071;1271;109053;-75
2022/06/05 05:00:26;;;;;;;7.40;6.20;;;;;;;17.75;67.73;100683.42;130157;1271;108999;-75
2022/06/05 05:03:32;;;;;;;6.60;5.90;;;;;;;17.87;67.96;100684.52;130112;1271;106955;-79
2022/06/05 05:06:38;;;;;;;7.30;6.60;;;;;;;18.03;66.83;100692.57;130157;1271;108770;-78
2022/06/05 05:09:44;;;;;;;7.40;6.70;;;;;;;17.98;66.75;100690.77;130058;1271;108822;-77
2022/06/05 05:12:49;;;;;;;10.30;6.80;;;;;;;17.98;66.86;100692.36;130052;1271;108646;-78
2022/06/05 05:15:57;;;;;;;7.80;7.00;;;;;;;18.00;66.14;100696.44;130286;1271;107546;-85
2022/06/05 05:19:02;;;;;;;6.90;6.20;;;;;;;17.94;65.47;100701.11;130497;1271;108730;-77
2022/06/05 05:22:08;;;;;;;7.10;5.50;;;;;;;17.94;64.86;100707.77;130338;1271;108894;-77
2022/06/05 05:25:14;;;;;;;6.40;5.70;;;;;;;17.96;65.07;100705.87;130240;1271;108678;-75
2022/06/05 05:28:19;;;;;;;6.50;5.80;;;;;;;18.07;65.18;100705.13;130341;1271;108976;-76
2022/06/05 05:31:27;;;;;;;6.60;5.90;;;;;;;18.21;65.90;100707.73;130183;1271;108648;-76
2022/06/05 05:34:32;;;;;;;6.70;5.00;;;;;;;18.29;64.33;100704.84;130126;1271;108700;-76
2022/06/05 05:37:38;;;;;;;7.40;5.60;;;;;;;18.36;64.41;100705.02;130241;1271;108565;-75
2022/06/05 05:44:06;;;;;;;5.80;5.20;;;;;;;18.25;63.92;100707.22;130082;1271;108733;-74
2022/06/05 05:47:14;;;;;;;6.30;5.50;;;;;;;18.35;64.50;100708.80;129965;1271;106921;-74
2022/06/05 05:50:19;;;;;;;5.60;4.60;;;;;;;18.44;62.48;100711.96;129979;1271;108689;-76
2022/06/05 05:53:24;;;;;;;5.00;4.10;;;;;;;18.35;61.69;100708.02;129996;1271;108916;-76
2022/06/05 05:56:30;;;;;;;5.60;5.10;;;;;;;18.30;62.08;100711.05;129998;1271;108832;-75
2022/06/05 05:59:35;;;;;;;5.60;5.00;;;;;;;18.27;62.38;100709.06;129994;1271;108856;-75
2022/06/05 06:02:42;;;;;;;5.60;5.10;;;;;;;18.32;63.17;100707.91;130069;1271;108709;-76
2022/06/05 06:05:47;;;;;;;6.60;5.00;;;;;;;18.47;62.96;100709.46;129983;1271;108829;-78
2022/06/05 06:08:52;;;;;;;7.20;5.80;;;;;;;18.48;61.90;100708.42;129998;1271;108681;-75
2022/06/05 06:11:58;;;;;;;5.80;5.00;;;;;;;18.36;62.13;100708.62;130054;1271;108182;-75
2022/06/05 06:15:03;;;;;;;6.00;5.40;;;;;;;18.26;60.89;100706.98;130127;1271;108680;-76
2022/06/05 06:18:09;;;;;;;6.50;5.00;;;;;;;18.13;61.00;100706.41;130183;1271;108821;-75
2022/06/05 06:21:14;;;;;;;5.90;4.90;;;;;;;18.03;61.43;100707.70;130144;1271;109823;-74
2022/06/05 06:24:20;;;;;;;8.80;4.40;;;;;;;17.99;61.88;100707.10;129972;1271;106843;-76
2022/06/05 06:27:25;;;;;;;4.60;4.20;;;;;;;18.02;61.52;100705.86;129979;1268;108844;-72
2022/06/05 06:30:30;;;;;;;5.20;4.00;;;;;;;18.07;61.67;100704.73;130208;1271;108648;-73
2022/06/05 06:33:35;;;;;;;5.70;4.40;;;;;;;18.09;60.56;100705.18;130032;1271;108814;-74
2022/06/05 06:36:41;;;;;;;4.50;4.10;;;;;;;18.04;60.45;100706.21;129989;1271;108858;-73
2022/06/05 06:39:46;;;;;;;5.00;4.50;;;;;;;18.00;61.29;100707.70;129966;1271;108512;-72
2022/06/05 06:42:51;;;;;;;5.10;4.10;;;;;;;18.04;60.64;100709.27;129961;1271;108616;-73
2022/06/05 06:45:58;;;;;;;4.70;4.10;;;;;;;18.04;61.29;100709.95;130128;1271;108679;-73
2022/06/05 06:49:04;;;;;;;5.90;5.20;;;;;;;18.11;61.13;100707.89;130118;1271;109178;-72
2022/06/05 06:52:09;;;;;;;6.40;5.60;;;;;;;18.09;60.41;100706.13;130159;1271;108633;-72
2022/06/05 06:55:17;;;;;;;6.20;4.90;;;;;;;17.98;60.24;100701.90;130160;1271;108581;-76
2022/06/05 06:58:22;;;;;;;7.00;5.00;;;;;;;17.91;60.18;100703.08;130097;1271;108807;-77
2022/06/05 07:01:28;;;;;;;5.10;4.60;;;;;;;17.87;59.59;100701.45;130045;1271;108944;-76
2022/06/05 07:04:34;;;;;;;5.20;4.50;;;;;;;17.80;59.56;100702.83;130149;1271;108773;-72
2022/06/05 07:07:39;;;;;;;5.70;4.90;;;;;;;17.80;59.52;100705.19;130162;1271;108449;-77
2022/06/05 07:10:46;;;;;;;5.20;4.70;;;;;;;17.76;59.51;100706.36;130221;1270;108886;-78
2022/06/05 07:13:51;;;;;;;6.90;5.40;;;;;;;17.76;59.54;100706.89;130241;1271;108500;-78
2022/06/05 07:16:57;;;;;;;5.30;4.70;;;;;;;17.80;60.37;100701.25;130444;1271;108478;-77
2022/06/05 07:20:03;;;;;;;5.80;4.80;;;;;;;17.95;60.18;100701.41;130195;1269;108740;-76
2022/06/05 07:23:09;;;;;;;10.80;8.90;;;;;;;18.06;60.26;100698.33;130192;1271;108839;-77
2022/06/05 07:26:17;;;;;;;8.60;5.80;;;;;;;18.17;60.06;100697.19;130137;1271;108945;-79
2022/06/05 07:29:22;;;;;;;9.40;7.30;;;;;;;18.29;59.91;100697.28;130216;1271;108226;-77
2022/06/05 07:32:27;;;;;;;6.00;5.20;;;;;;;18.34;59.32;100699.95;130211;1271;108474;-78
2022/06/05 07:35:33;;;;;;;5.80;5.00;;;;;;;18.36;59.58;100694.08;130187;1271;108633;-80
2022/06/05 07:38:39;;;;;;;6.90;5.70;;;;;;;18.42;58.70;100691.50;130332;1269;109222;-77
2022/06/05 07:41:44;;;;;;;7.20;5.70;;;;;;;18.41;59.27;100693.36;130227;1271;108726;-76
2022/06/05 07:44:49;;;;;;;6.30;4.90;;;;;;;18.50;59.32;100694.71;130194;1270;107718;-75
2022/06/05 07:47:55;;;;;;;5.80;4.70;;;;;;;18.59;58.56;100692.95;130057;1271;108728;-73
2022/06/05 07:54:40;;;;;;;5.60;4.10;;;;;;;18.62;58.60;100689.17;129412;1276;107722;-75
2022/06/05 07:57:45;;;;;;;5.50;4.50;;;;;;;18.71;58.17;100692.20;130108;1271;108909;-77
2022/06/05 08:00:50;;;;;;;5.30;4.60;;;;;;;18.81;58.40;100688.27;130028;1271;107814;-74
2022/06/05 08:03:55;;;;;;;5.00;4.50;;;;;;;18.91;58.33;100686.60;130102;1271;108903;-75
2022/06/05 08:07:03;;;;;;;4.50;4.10;;;;;;;19.00;58.25;100686.21;130053;1271;108891;-82
2022/06/05 08:10:10;;;;;;;6.30;4.40;;;;;;;19.12;58.41;100682.74;130183;1271;108893;-79
2022/06/05 08:13:15;;;;;;;5.00;4.50;;;;;;;19.21;57.77;100680.55;130235;1271;108968;-78
2022/06/05 08:16:21;;;;;;;5.10;4.60;;;;;;;19.27;58.18;100676.71;130112;1271;108290;-73
2022/06/05 08:19:26;;;;;;;5.40;4.90;;;;;;;19.35;57.70;100674.63;130120;1271;108977;-78
2022/06/05 08:22:31;;;;;;;5.90;5.30;;;;;;;19.36;57.39;100673.67;130096;1269;108608;-78
2022/06/05 08:25:37;;;;;;;6.20;4.80;;;;;;;19.38;56.73;100665.68;130123;1271;109260;-77
2022/06/05 08:28:43;;;;;;;5.10;4.00;;;;;;;19.39;56.40;100671.86;130031;1271;108449;-77
2022/06/05 08:31:48;;;;;;;4.80;3.50;;;;;;;19.40;55.53;100674.52;130263;1271;108524;-83
2022/06/05 08:34:53;;;;;;;4.00;3.50;;;;;;;19.41;55.49;100676.70;130326;1271;108692;-84
2022/06/05 08:41:37;;;;;;;5.00;4.30;;;;;;;19.47;55.27;100681.52;130143;1271;108677;-81
2022/06/05 08:44:46;;;;;;;3.90;3.50;;;;;;;19.49;53.53;100685.73;130072;1271;107130;-80
2022/06/05 08:47:57;;;;;;;4.30;3.50;;;;;;;19.53;53.79;100683.75;130351;1269;108789;-77
2022/06/05 08:51:18;;;;;;;3.60;3.10;;;;;;;19.59;53.77;100683.48;130262;1271;108562;-79
2022/06/05 08:54:38;;;;;;;3.80;3.40;;;;;;;19.69;54.18;100679.48;130374;1271;108690;-75
2022/06/05 08:57:50;;;;;;;4.90;3.60;;;;;;;19.80;54.60;100678.51;130200;1271;108747;-77
2022/06/05 09:00:57;;;;;;;;;;;;;;;19.93;53.71;100680.80;130369;1271;108302;-76
2022/06/05 09:04:16;;;;;;;3.50;3.20;;;;;;;19.91;51.19;100680.84;130220;1271;107760;-74
2022/06/05 09:07:26;;;;;;;4.20;3.20;;;;;;;19.91;52.87;100676.50;130252;1271;108880;-78
2022/06/05 09:10:37;;;;;;;5.60;3.30;;;;;;;19.98;53.16;100672.17;130001;1271;108687;-76
2022/06/05 09:13:51;;;;;;;4.30;3.60;;;;;;;20.07;53.48;100672.20;130125;1270;108686;-75
2022/06/05 09:17:03;;;;;;;4.30;3.70;;;;;;;20.18;52.28;100671.31;130258;1270;108736;-74
2022/06/05 09:20:16;;;;;;;4.20;3.80;;;;;;;20.11;51.04;100670.52;130119;1271;108723;-77
2022/06/05 09:23:34;;;;;;;5.80;4.90;;;;;;;20.15;51.43;100671.27;130183;1271;107677;-77
2022/06/05 09:26:44;;;;;;;4.50;4.10;;;;;;;20.16;51.67;100674.14;130095;1271;108548;-79
2022/06/05 09:29:57;;;;;;;5.40;4.10;;;;;;;20.19;51.87;100674.73;130193;1270;108680;-76
2022/06/05 09:33:10;;;;;;;4.10;3.70;;;;;;;20.22;51.85;100669.82;130166;1271;108743;-74
2022/06/05 09:36:22;;;;;;;4.10;3.70;;;;;;;20.29;50.91;100672.16;130149;1271;108723;-76
2022/06/05 09:39:33;;;;;;;4.20;3.60;;;;;;;20.38;52.08;100668.24;130064;1271;107268;-77
2022/06/05 09:43:03;;;;;;;3.60;3.30;;;;;;;20.45;50.68;100674.37;130135;1271;108906;-75
2022/06/05 09:46:21;;;;;;;3.70;3.30;;;;;;;20.42;50.24;100676.58;130211;1270;107044;-75
2022/06/05 09:49:35;;;;;;;3.90;3.40;;;;;;;20.49;51.29;100674.50;130107;1270;108955;-77
2022/06/05 09:52:41;;;;;;;4.60;3.20;;;;;;;20.59;50.90;100672.42;130292;1271;107996;-76
2022/06/05 09:55:59;;;;;;;3.40;3.10;;;;;;;20.64;49.72;100672.70;130245;1271;107529;-77
2022/06/05 09:59:19;;;;;;;3.30;3.00;;;;;;;20.67;49.84;100671.23;130178;1268;108666;-76
2022/06/05 10:02:25;;;;;;;3.70;3.20;;;;;;;20.68;48.50;100673.56;130095;1270;109820;-78
2022/06/05 10:05:33;;;;;;;3.60;3.00;;;;;;;20.67;48.83;100675.27;130146;1270;107828;-77
2022/06/05 10:08:43;;;;;;;3.40;3.00;;;;;;;20.74;49.65;100670.98;130155;1271;108806;-75
2022/06/05 10:11:57;;;;;;;3.10;2.80;;;;;;;20.81;48.73;100674.94;130188;1271;108647;-79
2022/06/05 10:15:16;;;;;;;3.30;2.80;;;;;;;20.81;47.95;100674.23;130159;1271;107591;-78
2022/06/05 10:18:28;;;;;;;3.30;2.40;;;;;;;20.84;46.94;100672.35;130164;1271;108696;-74
2022/06/05 10:21:38;;;;;;;2.70;2.40;;;;;;;20.84;44.95;100670.08;130229;1270;108668;-74
2022/06/05 10:24:55;;;;;;;2.60;2.30;;;;;;;20.84;45.85;100669.30;130206;1271;108767;-74
2022/06/05 10:28:05;;;;;;;4.30;2.30;;;;;;;20.88;44.39;100666.50;130346;1269;108653;-74
2022/06/05 10:31:13;;;;;;;5.70;2.10;;;;;;;20.88;43.20;100666.38;130286;1270;108663;-74
2022/06/05 10:34:24;;;;;;;2.40;2.20;;;;;;;20.92;45.52;100665.45;130230;1269;108727;-74
2022/06/05 10:37:35;;;;;;;2.60;1.80;;;;;;;21.05;46.01;100654.77;130377;1270;108863;-74
2022/06/05 10:40:48;;;;;;;2.70;2.10;;;;;;;21.06;41.91;100654.82;130264;1269;108754;-75
2022/06/05 10:44:11;;;;;;;2.10;1.80;;;;;;;21.05;42.71;100655.20;130269;1271;108848;-76
2022/06/05 10:47:33;;;;;;;3.10;2.60;;;;;;;21.11;43.96;100654.13;130369;1270;108819;-77
2022/06/05 10:50:38;;;;;;;;;;;;;;;21.20;44.10;100654.15;130356;1270;108639;-76
2022/06/05 10:53:48;;;;;;;2.50;2.00;;;;;;;21.24;43.77;100649.97;130272;1271;108954;-75
2022/06/05 10:56:58;;;;;;;2.80;2.10;;;;;;;21.27;43.71;100651.00;130084;1271;108730;-75
2022/06/05 11:00:17;;;;;;;2.70;2.20;;;;;;;21.26;42.59;100648.45;129953;1271;108879;-78
2022/06/05 11:03:30;;;;;;;4.50;2.70;;;;;;;21.27;42.49;100648.66;130203;1270;108827;-77
2022/06/05 11:06:43;;;;;;;2.60;2.30;;;;;;;21.28;42.40;100645.07;130248;1270;108737;-76
2022/06/05 11:09:55;;;;;;;2.70;2.10;;;;;;;21.30;41.11;100645.91;130095;1271;109092;-76
2022/06/05 11:16:38;;;;;;;2.80;1.80;;;;;;;21.32;40.93;100638.25;129979;1271;107671;-74
2022/06/05 11:19:52;;;;;;;3.20;2.10;;;;;;;21.31;42.25;100630.36;130023;1270;108671;-75
2022/06/05 11:23:01;;;;;;;2.10;1.90;;;;;;;21.35;41.88;100618.85;130157;1270;108884;-78
2022/06/05 11:26:16;;;;;;;2.30;2.10;;;;;;;21.41;42.54;100614.24;130127;1270;108630;-74
2022/06/05 11:29:27;;;;;;;4.00;2.40;;;;;;;21.47;41.49;100610.98;130050;1270;108941;-75
2022/06/05 11:32:48;;;;;;;2.40;2.20;;;;;;;21.50;41.49;100608.13;129919;1271;108685;-77
2022/06/05 11:36:11;;;;;;;2.30;2.10;;;;;;;21.55;41.50;100607.71;129965;1271;109267;-76
2022/06/05 11:39:32;;;;;;;2.20;2.00;;;;;;;21.58;42.15;100602.92;130142;1271;108495;-75
2022/06/05 11:42:45;;;;;;;3.40;2.00;;;;;;;21.57;41.84;100601.92;130200;1271;108790;-73
2022/06/05 11:45:58;;;;;;;2.40;2.20;;;;;;;21.60;42.06;100599.34;130196;1271;108715;-75
2022/06/05 11:49:10;;;;;;;2.70;1.80;;;;;;;21.63;40.98;100598.54;130191;1269;108784;-74
2022/06/05 11:52:24;;;;;;;2.00;1.80;;;;;;;21.64;41.30;100593.68;130186;1271;108488;-76
2022/06/05 11:55:36;;;;;;;2.70;2.00;;;;;;;21.67;41.00;100588.11;130309;1270;108895;-76
2022/06/05 11:58:51;;;;;;;3.70;1.80;;;;;;;21.72;41.27;100588.70;130188;1270;108381;-75
2022/06/05 12:02:01;;;;;;;2.10;1.90;;;;;;;21.79;39.99;100595.55;130197;1271;108963;-75
2022/06/05 12:05:16;;;;;;;1.90;1.70;;;;;;;21.78;40.61;100587.20;130198;1269;108711;-77
2022/06/05 12:08:29;;;;;;;2.30;2.10;;;;;;;21.82;40.72;100585.88;130180;1269;108651;-82
2022/06/05 12:11:41;;;;;;;2.00;1.80;;;;;;;21.89;41.25;100581.64;130200;1271;108837;-79
2022/06/05 12:14:53;;;;;;;2.60;1.90;;;;;;;21.92;40.39;100582.39;130177;1269;108800;-78
2022/06/05 12:18:01;;;;;;;;;;;;;;;21.92;40.33;100573.60;130265;1271;109232;-77
2022/06/05 12:21:13;;;;;;;2.20;2.00;;;;;;;21.95;40.61;100571.45;130276;1271;108761;-80
2022/06/05 12:24:25;;;;;;;3.00;1.80;;;;;;;21.99;40.28;100571.77;130234;1269;108770;-77
2022/06/05 12:27:52;;;;;;;2.40;2.20;;;;;;;21.96;40.32;100569.90;130153;1271;109503;-78
2022/06/05 12:31:05;;;;;;;2.80;2.30;;;;;;;21.98;40.56;100569.02;130140;1271;108865;-76
2022/06/05 12:34:17;;;;;;;2.40;2.20;;;;;;;22.01;41.30;100566.47;130203;1270;108969;-76
2022/06/05 12:37:27;;;;;;;2.40;2.20;;;;;;;22.05;40.28;100565.36;130095;1271;108663;-76
2022/06/05 12:40:36;;;;;;;2.40;2.10;;;;;;;22.08;40.55;100556.69;130199;1271;108629;-82
2022/06/05 12:43:58;;;;;;;2.40;2.00;;;;;;;22.10;40.75;100559.20;130247;1271;108893;-77
2022/06/05 12:47:13;;;;;;;3.10;2.10;;;;;;;22.15;40.77;100555.66;130253;1270;108940;-79
2022/06/05 12:50:30;;;;;;;1.80;1.70;;;;;;;22.25;40.36;100550.61;130320;1271;108759;-79
2022/06/05 12:53:40;;;;;;;2.10;1.60;;;;;;;22.25;39.03;100550.20;130319;1269;108796;-79
2022/06/05 12:56:50;;;;;;;1.80;1.70;;;;;;;22.21;38.97;100548.54;130195;1271;108754;-78
2022/06/05 13:00:03;;;;;;;1.90;1.70;;;;;;;22.23;38.38;100554.13;130021;1271;238414;-79
2022/06/05 13:03:18;;;;;;;1.80;1.70;;;;;;;22.22;39.56;100546.61;130171;1271;108683;-79
2022/06/05 13:06:45;;;;;;;1.80;1.70;;;;;;;22.29;39.45;100545.86;130243;1269;108663;-78
2022/06/05 13:09:54;;;;;;;1.70;1.60;;;;;;;22.31;37.00;100544.05;130149;1271;108683;-80
2022/06/05 13:13:10;;;;;;;2.50;1.40;;;;;;;22.26;38.04;100542.13;130166;1269;108881;-78
2022/06/05 13:16:24;;;;;;;1.50;1.40;;;;;;;22.26;38.10;100543.55;130241;1269;108801;-78
2022/06/05 13:19:36;;;;;;;2.00;1.60;;;;;;;22.30;38.45;100537.16;130223;1270;108966;-78
2022/06/05 13:22:54;;;;;;;1.70;1.60;;;;;;;22.36;38.44;100530.70;130223;1270;108769;-78
2022/06/05 13:26:15;;;;;;;2.10;1.50;;;;;;;22.42;37.43;100527.72;130223;1271;107429;-78
2022/06/05 13:29:38;;;;;;;1.50;1.40;;;;;;;22.41;37.27;100528.39;130244;1271;107133;-79
2022/06/05 13:32:53;;;;;;;1.60;1.40;;;;;;;22.41;37.68;100530.41;130280;1271;108665;-78
2022/06/05 13:36:05;;;;;;;2.00;1.50;;;;;;;22.46;38.31;100530.48;130252;1270;108315;-77
2022/06/05 13:39:25;;;;;;;1.60;1.30;;;;;;;22.50;38.72;100523.62;130220;1269;108943;-79
2022/06/05 13:42:35;;;;;;;1.60;1.40;;;;;;;22.49;38.40;100524.50;130253;1271;109691;-78
2022/06/05 13:45:53;;;;;;;1.60;1.50;;;;;;;22.51;38.48;100522.52;130243;1271;108886;-79
2022/06/05 13:49:10;;;;;;;1.70;1.60;;;;;;;22.53;37.64;100519.05;130091;1271;108764;-80
2022/06/05 13:52:32;;;;;;;2.80;1.60;;;;;;;22.58;38.06;100518.48;130127;1271;108930;-79
2022/06/05 13:55:45;;;;;;;2.20;1.30;;;;;;;22.61;36.76;100517.10;130086;1271;106875;-81
2022/06/05 13:58:59;;;;;;;1.70;1.60;;;;;;;22.55;36.62;100514.66;129925;1271;108783;-76
2022/06/05 14:02:25;;;;;;;1.30;1.20;;;;;;;22.52;37.27;100508.45;129969;1271;109341;-79
2022/06/05 14:05:38;;;;;;;3.30;1.40;;;;;;;22.56;37.61;100509.40;129988;1271;108863;-79
2022/06/05 14:08:53;;;;;;;2.10;1.50;;;;;;;22.61;37.26;100500.90;129927;1271;108897;-78
2022/06/05 14:11:58;;;;;;;1.50;1.40;;;;;;;22.65;37.73;100498.67;130005;1271;108675;-77
2022/06/05 14:15:16;;;;;;;1.80;1.40;;;;;;;22.70;38.04;100493.39;130098;1271;110363;-76
2022/06/05 14:18:28;;;;;;;1.50;1.40;;;;;;;22.69;36.70;100496.30;129986;1271;108625;-77
2022/06/05 14:21:39;;;;;;;1.50;1.30;;;;;;;22.66;36.80;100495.77;130061;1271;108951;-75
2022/06/05 14:24:46;;;;;;;1.80;1.40;;;;;;;22.67;36.85;100490.30;130009;1270;108957;-73
2022/06/05 14:27:58;;;;;;;2.50;1.40;;;;;;;22.63;36.33;100485.27;129952;1271;108952;-75
2022/06/05 14:31:11;;;;;;;1.80;1.40;;;;;;;22.63;37.14;100482.67;129942;1271;108737;-77
2022/06/05 14:34:21;;;;;;;1.50;1.20;;;;;;;22.65;35.75;100481.11;130089;1271;108792;-74
2022/06/05 14:37:33;;;;;;;1.30;1.20;;;;;;;22.63;35.49;100479.46;129983;1271;110032;-75
2022/06/05 14:40:49;;;;;;;1.30;1.20;;;;;;;22.59;35.58;100476.27;130061;1271;108928;-76